nws-alerts: Checking more than four warning/county codes can delay the loading of your pages. You should use a cron job to get the data.

Nearby METAR Reports

 

KOXC - Oxford/Waterbury, Connecticut, USA
Distance from station: NW 7mi, 11km
Updated: 08/21/2019 6:51pm
Mostly cloudy
Mostly cloudy
 Wind from SSW
Wind: SSW 5 mph , 7 km/h
Temperature: 75°F , 24°C
Dew Point: 70°F , 21°C
Humidity: 83%
Barometer: 29.89 inHg , 1012.2 hPa
Clouds: Mostly cloudy
Visibility: 10 miles , 16 km
Cloud details: Partly cloudy 2500 ft
Partly cloudy 3100 ft
Mostly cloudy 3900 ft
2019/08/21 22:51 KOXC 212251Z 21004KT 10SM SCT025 SCT031 BKN039 24/21 A2989 RMK AO2 LTG DSNT NE AND S TSE30 SLP128 TS E29 TS MVD E T02440211
KHVN - New Haven/Tweed, Connecticut, USA
Distance from station: SE 13mi, 20km
Updated: 08/21/2019 6:53pm
Mostly cloudy
Mostly cloudy
 Wind from SSW
Wind: SSW 7 mph , 11 km/h
Temperature: 82°F , 28°C
Heat Index: 89°F , 32°C
Dew Point: 75°F , 24°C
Humidity: 79%
Barometer: 29.86 inHg , 1011.2 hPa
Clouds: Mostly cloudy
Visibility: 10 miles , 16 km
Cloud details: Partly cloudy 3500 ft
Partly cloudy 4500 ft
Mostly cloudy 11000 ft
2019/08/21 22:53 KHVN 212253Z 21006KT 10SM SCT035 SCT045 BKN110 28/24 A2986 RMK AO2 LTG DSNT ALQDS RAB10E22 SLP109 P0000 T02830244
 
KMMK - Meriden, Connecticut, USA
Distance from station: NE 13mi, 21km
Updated: 08/21/2019 6:53pm
Clear
Clear
 Wind from SSW
Wind: SSW 5 mph , 7 km/h
Temperature: 79°F , 26°C
Dew Point: 73°F , 23°C
Humidity: 84%
Barometer: 29.85 inHg , 1010.8 hPa
Clouds: Clear
Visibility: 10 miles , 16 km
2019/08/21 22:53 KMMK 212253Z AUTO 20004KT 10SM CLR 26/23 A2985 RMK AO2 LTG DSNT NE AND E RAB22E38 TSB18E50 SLP108 P0014 T02560233
KBDR - Bridgeport, Connecticut, USA
Distance from station: SSW 17mi, 27km
Updated: 08/21/2019 6:52pm
Few Clouds
Few Clouds
 Wind from SW
Wind: SW 13 mph , 20 km/h
Temperature: 81°F , 27°C
Heat Index: 85°F , 29°C
Dew Point: 70°F , 21°C
Humidity: 70%
Barometer: 29.85 inHg , 1010.8 hPa
Clouds: Few Clouds
Visibility: 10 miles , 16 km
Cloud details: Few Clouds 9500 ft
2019/08/21 22:52 KBDR 212252Z 23011KT 10SM FEW095 27/21 A2985 RMK AO2 LTG DSNT SE-SW RAB2158E33 TSE06 SLP109 TS OBS S MOV E P0000 T02720211
 
KDXR - Danbury, Connecticut, USA
Distance from station: W 23mi, 38km
Updated: 08/21/2019 6:53pm
Few Clouds
Few Clouds
 Wind from SSW
Wind: SSW 9 mph , 15 km/h
Temperature: 82°F , 28°C
Heat Index: 86°F , 30°C
Dew Point: 70°F , 21°C
Humidity: 66%
Barometer: 29.87 inHg , 1011.5 hPa
Clouds: Few Clouds
Visibility: 10 miles , 16 km
Cloud details: Few Clouds 4400 ft
2019/08/21 22:53 KDXR 212253Z 21008KT 10SM FEW044 28/21 A2987 RMK AO2 LTG DSNT SE SLP110 T02780206 $